aviador You're here:

NWWW Decoded Metar

NOUMEA in NEW CALEDONIA
Report Time2017-08-16 14:30:00
UTC Time2017-08-16 15:03:39
Flight Rules vfr VFR
Wind130° at 03 kt
W.Decomp.*RWY 11: 3.0 kt HW 0.4 kt RCW
W.Rank130° ranks 1
Current wind is below 130° avg. (9.6)
Visibility9999 m
Phenomena:N/A
Clouds:N/A
Expected CloudBase > 1,200 ft AGL from Temp-Dew spread
CeilingNone
Temp14°C (ISA -1)
Dew Point11°C (82% RH)
AAT13.2°C
QNH1017 hPa
Density Alt-13 ft
Elevation52 ft
Report Wrong Elevation
Raw Report
NWWW 161430Z AUTO 13003KT CAVOK 14/11 Q1017 NOSIG=

Extra information for NWWW:More info

Metar Taf Metar & Taf Last 4 Metars F.Rules Stats Wind Profile Meteogram Temp Stats Airport Information Weather charts Add Link Nearby VenuesMetar ALERT Operation Metar Decoded Social comments